createdAt,value
2023-04-04T00:00:29.746Z,1.74
2023-04-04T00:02:56.613Z,1.72
2023-04-04T00:05:24.112Z,1.68
2023-04-04T00:07:50.773Z,1.73
2023-04-04T00:10:17.784Z,1.73
2023-04-04T00:12:44.426Z,1.71
2023-04-04T00:15:11.332Z,1.70
2023-04-04T00:17:37.994Z,1.71
2023-04-04T00:20:05.018Z,1.70
2023-04-04T00:22:31.844Z,1.67
2023-04-04T00:24:59.269Z,1.69
2023-04-04T00:27:26.372Z,1.69
2023-04-04T00:29:52.993Z,1.68
2023-04-04T00:32:19.814Z,1.71
2023-04-04T00:34:46.707Z,1.69
2023-04-04T00:37:13.389Z,1.73
2023-04-04T00:39:40.281Z,1.77
2023-04-04T00:42:07.532Z,1.74
2023-04-04T00:44:36.531Z,1.74
2023-04-04T00:47:04.750Z,1.76
2023-04-04T00:49:31.326Z,1.77
2023-04-04T00:51:58.297Z,1.77
2023-04-04T00:54:25.385Z,1.76
2023-04-04T00:56:55.719Z,1.72
2023-04-04T00:59:23.982Z,1.75
2023-04-04T01:01:51.065Z,1.74
2023-04-04T01:04:17.918Z,1.76
2023-04-04T01:06:45.890Z,1.71
2023-04-04T01:09:13.246Z,1.69
2023-04-04T01:11:39.939Z,1.71
2023-04-04T01:14:06.562Z,1.70
2023-04-04T01:16:33.394Z,1.66
2023-04-04T01:19:00.283Z,1.63
2023-04-04T01:21:27.599Z,1.56
2023-04-04T01:24:04.710Z,1.52
2023-04-04T01:26:31.859Z,1.46
2023-04-04T01:28:59.621Z,1.37
2023-04-04T01:31:30.101Z,1.33
2023-04-04T01:34:38.338Z,1.08
2023-04-04T01:37:29.085Z,0.81
2023-04-04T01:40:21.993Z,0.71
2023-04-04T01:42:49.661Z,0.65
2023-04-04T01:45:16.369Z,0.55
2023-04-04T01:47:43.745Z,0.45
2023-04-04T01:50:11.879Z,0.33
2023-04-04T01:52:38.555Z,0.29
2023-04-04T01:55:05.615Z,0.26
2023-04-04T01:57:32.250Z,0.19
2023-04-04T01:59:58.823Z,0.15
2023-04-04T02:02:25.627Z,0.18
2023-04-04T02:04:52.415Z,0.27
2023-04-04T02:07:19.582Z,0.38
2023-04-04T02:09:46.471Z,0.37
2023-04-04T02:12:13.556Z,0.36
2023-04-04T02:14:41.058Z,0.39
2023-04-04T02:17:07.820Z,0.38
2023-04-04T02:19:34.441Z,0.39
2023-04-04T02:22:01.111Z,0.44
2023-04-04T02:24:27.823Z,0.52
2023-04-04T02:26:54.492Z,0.55
2023-04-04T02:29:21.142Z,0.55
2023-04-04T02:31:48.278Z,0.56
2023-04-04T02:34:14.894Z,0.50
2023-04-04T02:36:41.582Z,0.48
2023-04-04T02:39:08.187Z,0.52
2023-04-04T02:41:34.823Z,0.45
2023-04-04T02:44:01.416Z,0.46
2023-04-04T02:46:28.177Z,0.41
2023-04-04T02:48:54.681Z,0.41
2023-04-04T02:51:21.473Z,0.30
2023-04-04T02:53:48.129Z,0.25
2023-04-04T02:56:14.708Z,0.15
2023-04-04T02:58:41.676Z,0.11
2023-04-04T03:01:09.218Z,0.02
2023-04-04T03:03:36.182Z,-0.11
2023-04-04T03:06:03.015Z,-0.21
2023-04-04T03:08:29.592Z,-0.31
2023-04-04T03:10:56.541Z,-0.37
2023-04-04T03:13:23.056Z,-0.45
2023-04-04T03:15:49.834Z,-0.53
2023-04-04T03:18:16.747Z,-0.52
2023-04-04T03:20:43.423Z,-0.66
2023-04-04T03:23:10.005Z,-0.62
2023-04-04T03:25:36.592Z,-0.74
2023-04-04T03:28:12.735Z,-0.76
2023-04-04T03:30:40.212Z,-0.92
2023-04-04T03:33:10.504Z,-0.89
2023-04-04T03:35:41.251Z,-0.83
2023-04-04T03:38:09.602Z,-0.91
2023-04-04T03:40:36.884Z,-0.93
2023-04-04T03:43:03.590Z,-0.98
2023-04-04T03:45:30.551Z,-0.96
2023-04-04T03:47:57.313Z,-1.04
2023-04-04T03:50:23.972Z,-1.07
2023-04-04T03:52:50.980Z,-1.11
2023-04-04T03:55:17.827Z,-1.13
2023-04-04T03:57:44.716Z,-1.26
2023-04-04T04:00:12.401Z,-1.29
2023-04-04T04:02:39.395Z,-1.30
2023-04-04T04:05:06.308Z,-1.33
2023-04-04T04:07:32.985Z,-1.36
2023-04-04T04:09:59.590Z,-1.41
2023-04-04T04:12:26.465Z,-1.41
2023-04-04T04:14:53.190Z,-1.43
2023-04-04T04:17:20.047Z,-1.44
2023-04-04T04:19:46.907Z,-1.51
2023-04-04T04:22:13.525Z,-1.47
2023-04-04T04:24:40.286Z,-1.56
2023-04-04T04:27:07.271Z,-1.59
2023-04-04T04:29:33.825Z,-1.67
2023-04-04T04:32:01.928Z,-1.66
2023-04-04T04:34:28.670Z,-1.66
2023-04-04T04:36:55.388Z,-1.73
2023-04-04T04:39:22.233Z,-1.75
2023-04-04T04:41:48.963Z,-1.77
2023-04-04T04:44:15.687Z,-1.76
2023-04-04T04:46:42.452Z,-1.71
2023-04-04T04:49:09.119Z,-1.79
2023-04-04T04:51:35.849Z,-1.85
2023-04-04T04:54:02.444Z,-1.76
2023-04-04T04:56:29.187Z,-1.75
2023-04-04T04:58:55.786Z,-1.74
2023-04-04T05:01:22.664Z,-1.67
2023-04-04T05:03:51.210Z,-1.57
2023-04-04T05:06:18.719Z,-1.45
2023-04-04T05:08:45.409Z,-1.39
2023-04-04T05:11:12.004Z,-1.30
2023-04-04T05:13:38.619Z,-1.22
2023-04-04T05:16:05.509Z,-1.16
2023-04-04T05:18:32.205Z,-1.07
2023-04-04T05:20:59.074Z,-0.93
2023-04-04T05:23:25.797Z,-0.73
2023-04-04T05:25:53.604Z,-0.58
2023-04-04T05:28:21.122Z,-0.42
2023-04-04T05:30:47.950Z,-0.29
2023-04-04T05:33:14.808Z,-0.21
2023-04-04T05:35:41.975Z,-0.13
2023-04-04T05:38:08.835Z,0.03
2023-04-04T05:40:35.642Z,0.11
2023-04-04T05:43:04.461Z,0.19
2023-04-04T05:45:32.006Z,0.35
2023-04-04T05:47:58.867Z,0.47
2023-04-04T05:50:25.979Z,0.58
2023-04-04T05:52:56.124Z,0.61
2023-04-04T05:55:23.119Z,0.60
2023-04-04T05:57:51.244Z,0.55
2023-04-04T06:00:19.659Z,0.65
2023-04-04T06:02:46.660Z,0.80
2023-04-04T06:05:13.311Z,0.82
2023-04-04T06:07:40.283Z,0.89
2023-04-04T06:10:07.978Z,1.08
2023-04-04T06:12:34.652Z,1.13
2023-04-04T06:15:01.568Z,1.20
2023-04-04T06:17:28.355Z,1.23
2023-04-04T06:19:55.523Z,1.31
2023-04-04T06:22:22.332Z,1.39
2023-04-04T06:24:48.975Z,1.45
2023-04-04T06:27:16.019Z,1.45
2023-04-04T06:29:43.072Z,1.47
2023-04-04T06:32:09.808Z,1.61
2023-04-04T06:34:36.465Z,1.70
2023-04-04T06:37:03.710Z,1.85
2023-04-04T06:39:31.800Z,2.04
2023-04-04T06:41:58.432Z,2.03
2023-04-04T06:44:25.336Z,2.04
2023-04-04T06:46:52.282Z,1.95
2023-04-04T06:49:18.851Z,1.79
2023-04-04T06:51:45.732Z,1.95
2023-04-04T06:54:12.430Z,1.99
2023-04-04T06:56:39.090Z,2.19
2023-04-04T06:59:05.979Z,2.12
2023-04-04T07:01:35.738Z,2.01
2023-04-04T07:04:02.953Z,1.92
2023-04-04T07:06:29.953Z,2.18
2023-04-04T07:08:57.005Z,2.22
2023-04-04T07:11:27.362Z,2.13
2023-04-04T07:13:54.244Z,2.13
2023-04-04T07:16:21.372Z,2.29
2023-04-04T07:18:48.138Z,2.45
2023-04-04T07:21:14.924Z,2.40
2023-04-04T07:23:41.572Z,2.51
2023-04-04T07:26:08.352Z,2.62
2023-04-04T07:28:35.144Z,2.76
2023-04-04T07:31:02.264Z,3.18
2023-04-04T07:33:29.302Z,2.96
2023-04-04T07:35:55.942Z,3.03
2023-04-04T07:38:22.933Z,3.35
2023-04-04T07:40:50.781Z,3.63
2023-04-04T07:43:17.478Z,3.72
2023-04-04T07:45:44.320Z,3.65
2023-04-04T07:48:11.276Z,3.63
2023-04-04T07:50:38.323Z,3.87
2023-04-04T07:53:05.259Z,3.74
2023-04-04T07:55:32.005Z,3.62
2023-04-04T07:57:58.862Z,3.63
2023-04-04T08:00:26.724Z,3.58
2023-04-04T08:02:55.238Z,3.93
2023-04-04T08:05:22.427Z,4.05
2023-04-04T08:07:49.213Z,4.10
2023-04-04T08:10:19.414Z,4.07
2023-04-04T08:12:46.205Z,4.03
2023-04-04T08:15:13.330Z,3.81
2023-04-04T08:17:40.404Z,4.04
2023-04-04T08:20:07.944Z,3.91
2023-04-04T08:22:34.497Z,4.02
2023-04-04T08:25:01.456Z,3.99
2023-04-04T08:27:28.127Z,3.94
2023-04-04T08:29:54.843Z,3.83
2023-04-04T08:32:22.376Z,3.89
2023-04-04T08:34:49.969Z,3.71
2023-04-04T08:37:17.221Z,3.30
2023-04-04T08:39:44.235Z,3.40
2023-04-04T08:42:12.187Z,3.38
2023-04-04T08:44:42.215Z,3.36
2023-04-04T08:47:10.981Z,3.07
2023-04-04T08:49:41.489Z,3.00
2023-04-04T08:52:11.801Z,2.88
2023-04-04T08:54:40.990Z,2.79
2023-04-04T08:57:08.679Z,3.12
2023-04-04T08:59:36.118Z,3.04
2023-04-04T09:02:06.459Z,3.05
2023-04-04T09:04:33.513Z,3.06
2023-04-04T09:07:02.706Z,3.06
2023-04-04T09:09:32.403Z,2.99
2023-04-04T09:12:02.526Z,3.01
2023-04-04T09:14:34.263Z,2.76
2023-04-04T09:17:01.058Z,2.70
2023-04-04T09:19:27.924Z,2.92
2023-04-04T09:21:54.700Z,3.11
2023-04-04T09:24:21.409Z,3.05
2023-04-04T09:26:53.494Z,3.11
2023-04-04T09:29:21.665Z,3.04
2023-04-04T09:31:49.802Z,3.00
2023-04-04T09:34:19.018Z,3.12
2023-04-04T09:36:46.451Z,3.20
2023-04-04T09:39:16.763Z,3.37
2023-04-04T09:41:46.232Z,3.58
2023-04-04T09:44:13.924Z,3.71
2023-04-04T09:46:40.990Z,3.92
2023-04-04T09:49:13.363Z,3.91
2023-04-04T09:51:42.731Z,4.12
2023-04-04T09:54:28.820Z,4.15
2023-04-04T09:56:56.638Z,4.11
2023-04-04T09:59:24.451Z,4.14
2023-04-04T10:01:53.718Z,4.27
2023-04-04T10:04:20.662Z,4.52
2023-04-04T10:06:47.370Z,4.55
2023-04-04T10:09:16.360Z,4.61
2023-04-04T10:11:43.188Z,4.58
2023-04-04T10:14:09.987Z,4.62
2023-04-04T10:16:38.120Z,4.78
2023-04-04T10:19:08.142Z,4.81
2023-04-04T10:21:35.879Z,5.21
2023-04-04T10:24:09.392Z,5.24
2023-04-04T10:26:37.222Z,4.81
2023-04-04T10:29:06.249Z,4.98
2023-04-04T10:31:35.272Z,4.91
2023-04-04T10:34:22.205Z,5.03
2023-04-04T10:36:58.274Z,5.07
2023-04-04T10:39:54.064Z,4.94
2023-04-04T10:42:21.188Z,4.96
2023-04-04T10:44:47.837Z,5.35
2023-04-04T10:47:17.894Z,5.26
2023-04-04T10:49:46.554Z,5.99
2023-04-04T10:52:18.261Z,6.45
2023-04-04T10:54:45.949Z,6.39
2023-04-04T10:57:14.339Z,6.03
2023-04-04T11:00:14.666Z,6.54
2023-04-04T11:02:53.559Z,6.82
2023-04-04T11:05:27.620Z,6.00
2023-04-04T11:08:09.821Z,6.09
2023-04-04T11:10:37.619Z,6.58
2023-04-04T11:13:18.868Z,7.50
2023-04-04T11:16:05.587Z,7.80
2023-04-04T11:18:34.009Z,8.13
2023-04-04T11:21:07.580Z,8.33
2023-04-04T11:23:49.225Z,9.01
2023-04-04T11:26:30.845Z,8.22
2023-04-04T11:29:02.291Z,7.20
2023-04-04T11:31:34.074Z,7.64
2023-04-04T11:34:08.895Z,8.23
2023-04-04T11:36:35.524Z,7.75
2023-04-04T11:39:07.088Z,7.38
2023-04-04T11:41:52.712Z,7.35
2023-04-04T11:44:21.522Z,6.99
2023-04-04T11:46:51.120Z,6.55
2023-04-04T11:49:18.676Z,6.68
2023-04-04T11:51:46.028Z,6.77
2023-04-04T11:54:17.339Z,6.62
2023-04-04T11:56:45.068Z,6.43
2023-04-04T11:59:23.015Z,6.65
2023-04-04T12:01:49.908Z,7.20
2023-04-04T12:04:21.558Z,7.82
2023-04-04T12:06:51.667Z,8.28
2023-04-04T12:09:19.414Z,8.33
2023-04-04T12:11:47.319Z,7.88
2023-04-04T12:14:22.080Z,7.65
2023-04-04T12:16:50.866Z,7.15
2023-04-04T12:19:18.652Z,7.13
2023-04-04T12:21:49.790Z,6.85
2023-04-04T12:24:16.982Z,6.21
2023-04-04T12:26:46.406Z,6.41
2023-04-04T12:29:16.060Z,6.51
2023-04-04T12:31:44.765Z,6.63
2023-04-04T12:34:19.411Z,6.62
2023-04-04T12:36:51.727Z,7.56
2023-04-04T12:39:20.542Z,8.33
2023-04-04T12:42:09.129Z,8.28
2023-04-04T12:44:37.919Z,7.97
2023-04-04T12:47:07.361Z,7.69
2023-04-04T12:49:42.919Z,7.54
2023-04-04T12:52:26.602Z,7.21
2023-04-04T12:55:06.792Z,6.73
2023-04-04T12:57:35.515Z,6.43
2023-04-04T13:00:04.706Z,6.50
2023-04-04T13:02:31.475Z,5.70
2023-04-04T13:04:58.959Z,5.90
2023-04-04T13:07:32.643Z,5.86
2023-04-04T13:10:04.117Z,6.78
2023-04-04T13:13:02.587Z,7.95
2023-04-04T13:15:51.302Z,8.30
2023-04-04T13:18:23.937Z,7.67
2023-04-04T13:20:55.223Z,8.22
2023-04-04T13:23:23.027Z,8.56
2023-04-04T13:25:49.917Z,8.51
2023-04-04T13:28:17.066Z,8.01
2023-04-04T13:30:49.068Z,7.53
2023-04-04T13:33:17.676Z,7.04
2023-04-04T13:35:46.108Z,6.98
2023-04-04T13:38:13.078Z,6.50
2023-04-04T13:40:39.968Z,6.11
2023-04-04T13:43:06.934Z,6.42
2023-04-04T13:45:34.716Z,6.88
2023-04-04T13:48:02.383Z,6.97
2023-04-04T13:50:29.334Z,7.14
2023-04-04T13:52:56.824Z,7.42
2023-04-04T13:55:23.663Z,7.50
2023-04-04T13:57:50.520Z,7.57
2023-04-04T14:00:17.654Z,7.37
2023-04-04T14:02:44.479Z,6.96
2023-04-04T14:05:11.969Z,6.08
2023-04-04T14:07:38.868Z,6.36
2023-04-04T14:10:06.155Z,6.40
2023-04-04T14:12:33.023Z,6.27
2023-04-04T14:14:59.696Z,6.42
2023-04-04T14:17:26.624Z,6.29
2023-04-04T14:19:53.281Z,6.64
2023-04-04T14:22:20.006Z,6.82
2023-04-04T14:24:47.028Z,7.22
2023-04-04T14:27:13.682Z,7.25
2023-04-04T14:29:40.655Z,7.13
2023-04-04T14:32:07.276Z,7.28
2023-04-04T14:34:33.921Z,7.10
2023-04-04T14:37:00.852Z,7.01
2023-04-04T14:39:28.170Z,6.64
2023-04-04T14:41:55.062Z,6.54
2023-04-04T14:44:22.122Z,6.02
2023-04-04T14:46:52.858Z,5.79
2023-04-04T14:49:19.675Z,5.85
2023-04-04T14:51:46.515Z,5.94
2023-04-04T14:54:13.267Z,5.63
2023-04-04T14:56:39.953Z,5.48
2023-04-04T14:59:07.173Z,5.57
2023-04-04T15:01:34.081Z,5.41
2023-04-04T15:04:00.894Z,5.50
2023-04-04T15:06:27.825Z,5.55
2023-04-04T15:08:54.651Z,5.51
2023-04-04T15:11:21.783Z,5.34
2023-04-04T15:13:48.591Z,5.52
2023-04-04T15:16:17.951Z,5.62
2023-04-04T15:18:44.833Z,5.34
2023-04-04T15:21:11.552Z,5.64
2023-04-04T15:23:38.196Z,5.62
2023-04-04T15:26:06.510Z,5.75
2023-04-04T15:28:33.613Z,5.89
2023-04-04T15:31:03.581Z,5.93
2023-04-04T15:33:30.437Z,5.71
2023-04-04T15:35:57.212Z,5.77
2023-04-04T15:38:23.916Z,5.74
2023-04-04T15:40:50.696Z,5.81
2023-04-04T15:43:17.376Z,5.61
2023-04-04T15:45:44.042Z,5.61
2023-04-04T15:48:10.746Z,5.67
2023-04-04T15:50:37.329Z,5.48
2023-04-04T15:53:04.014Z,5.39
2023-04-04T15:55:30.717Z,5.42
2023-04-04T15:57:57.306Z,5.31
2023-04-04T16:00:24.253Z,5.20
2023-04-04T16:02:51.330Z,4.99
2023-04-04T16:05:18.334Z,5.06
2023-04-04T16:07:44.979Z,5.20
2023-04-04T16:10:11.853Z,5.30
2023-04-04T16:12:38.452Z,5.31
2023-04-04T16:15:07.194Z,5.35
2023-04-04T16:17:34.042Z,5.39
2023-04-04T16:20:01.209Z,5.47
2023-04-04T16:22:27.920Z,5.43
2023-04-04T16:24:54.515Z,5.33
2023-04-04T16:27:21.342Z,5.13
2023-04-04T16:29:47.870Z,5.13
2023-04-04T16:32:14.717Z,4.92
2023-04-04T16:34:41.467Z,4.83
2023-04-04T16:37:10.033Z,4.77
2023-04-04T16:39:36.721Z,4.46
2023-04-04T16:42:03.690Z,4.53
2023-04-04T16:44:30.418Z,4.47
2023-04-04T16:46:57.251Z,4.46
2023-04-04T16:49:24.088Z,4.40
2023-04-04T16:51:50.719Z,4.37
2023-04-04T16:54:17.377Z,4.36
2023-04-04T16:56:44.294Z,4.25
2023-04-04T16:59:11.424Z,4.18
2023-04-04T17:01:38.623Z,4.16
2023-04-04T17:04:06.036Z,4.05
2023-04-04T17:06:33.497Z,3.99
2023-04-04T17:09:00.163Z,4.02
2023-04-04T17:11:28.262Z,3.97
2023-04-04T17:13:55.102Z,4.00
2023-04-04T17:16:23.587Z,3.94
2023-04-04T17:18:50.408Z,3.94
2023-04-04T17:21:17.716Z,3.82
2023-04-04T17:23:44.429Z,3.85
2023-04-04T17:26:11.227Z,3.72
2023-04-04T17:28:37.902Z,3.68
2023-04-04T17:31:04.865Z,3.56
2023-04-04T17:33:33.213Z,3.54
2023-04-04T17:35:59.986Z,3.43
2023-04-04T17:38:26.901Z,3.32
2023-04-04T17:40:54.074Z,3.28
2023-04-04T17:43:21.356Z,3.16
2023-04-04T17:45:48.360Z,3.11
2023-04-04T17:48:15.081Z,3.08
2023-04-04T17:50:43.240Z,3.01
2023-04-04T17:53:10.086Z,2.91
2023-04-04T17:55:37.101Z,2.84
2023-04-04T17:58:03.876Z,2.73
2023-04-04T18:00:30.949Z,2.61
2023-04-04T18:02:57.683Z,2.59
2023-04-04T18:05:24.599Z,2.53
2023-04-04T18:07:51.386Z,2.33
2023-04-04T18:10:18.211Z,2.21
2023-04-04T18:12:45.639Z,2.17
2023-04-04T18:15:12.998Z,2.03
2023-04-04T18:17:40.273Z,2.01
2023-04-04T18:20:08.940Z,1.96
2023-04-04T18:22:35.784Z,1.88
2023-04-04T18:25:02.657Z,1.77
2023-04-04T18:27:29.304Z,1.76
2023-04-04T18:29:56.072Z,1.64
2023-04-04T18:32:25.895Z,1.37
2023-04-04T18:34:52.574Z,1.18
2023-04-04T18:37:19.165Z,1.10
2023-04-04T18:39:45.863Z,0.97
2023-04-04T18:42:12.564Z,1.01
2023-04-04T18:44:39.674Z,1.10
2023-04-04T18:47:08.391Z,1.12
2023-04-04T18:49:35.776Z,1.01
2023-04-04T18:52:02.550Z,1.06
2023-04-04T18:54:29.280Z,1.06
2023-04-04T18:56:57.766Z,1.11
2023-04-04T18:59:24.958Z,1.13
2023-04-04T19:01:54.631Z,1.13
2023-04-04T19:04:21.959Z,1.10
2023-04-04T19:06:53.823Z,1.11
2023-04-04T19:09:21.514Z,1.00
2023-04-04T19:11:49.333Z,0.97
2023-04-04T19:14:17.345Z,0.97
2023-04-04T19:16:43.992Z,0.72
2023-04-04T19:19:12.367Z,0.50
2023-04-04T19:21:38.964Z,0.40
2023-04-04T19:24:06.658Z,0.33
2023-04-04T19:26:33.332Z,0.28
2023-04-04T19:29:00.055Z,0.24
2023-04-04T19:31:30.580Z,0.12
2023-04-04T19:33:57.233Z,0.06
2023-04-04T19:36:24.902Z,0.05
2023-04-04T19:38:54.676Z,-0.02
2023-04-04T19:41:34.476Z,0.06
2023-04-04T19:44:01.668Z,0.03
2023-04-04T19:46:32.038Z,-0.04
2023-04-04T19:49:00.281Z,-0.11
2023-04-04T19:51:28.047Z,-0.17
2023-04-04T19:53:56.480Z,-0.26
2023-04-04T19:56:25.301Z,-0.29
2023-04-04T19:59:06.854Z,-0.33
2023-04-04T20:01:44.771Z,-0.36
2023-04-04T20:04:22.778Z,-0.44
2023-04-04T20:06:50.053Z,-0.47
2023-04-04T20:09:34.982Z,-0.44
2023-04-04T20:12:02.136Z,-0.52
2023-04-04T20:14:29.160Z,-0.58
2023-04-04T20:16:56.310Z,-0.60
2023-04-04T20:19:26.624Z,-0.54
2023-04-04T20:21:53.638Z,-0.46
2023-04-04T20:24:21.810Z,-0.42
2023-04-04T20:26:56.886Z,-0.49
2023-04-04T20:29:28.274Z,-0.55
2023-04-04T20:32:18.877Z,-0.65
2023-04-04T20:34:50.781Z,-0.69
2023-04-04T20:37:35.056Z,-0.75
2023-04-04T20:40:21.593Z,-0.75
2023-04-04T20:42:48.841Z,-0.72
2023-04-04T20:45:31.968Z,-0.70
2023-04-04T20:48:00.636Z,-0.73
2023-04-04T20:50:27.552Z,-0.77
2023-04-04T20:53:05.135Z,-0.77
2023-04-04T20:55:34.142Z,-0.74
2023-04-04T20:58:25.592Z,-0.76
2023-04-04T21:00:52.336Z,-0.85
2023-04-04T21:03:24.860Z,-0.90
2023-04-04T21:05:58.367Z,-0.93
2023-04-04T21:08:51.307Z,-1.01
2023-04-04T21:11:29.052Z,-0.98
2023-04-04T21:13:57.078Z,-0.99
2023-04-04T21:16:26.577Z,-0.95
2023-04-04T21:19:01.082Z,-1.00
2023-04-04T21:21:28.691Z,-0.99
2023-04-04T21:23:57.637Z,-0.90
2023-04-04T21:26:35.109Z,-0.81
2023-04-04T21:29:03.469Z,-0.93
2023-04-04T21:31:36.271Z,-1.04
2023-04-04T21:34:09.070Z,-1.17
2023-04-04T21:36:35.699Z,-1.29
2023-04-04T21:39:09.842Z,-1.35
2023-04-04T21:41:36.505Z,-1.33
2023-04-04T21:44:05.577Z,-1.28
2023-04-04T21:46:34.516Z,-1.25
2023-04-04T21:49:01.787Z,-1.29
2023-04-04T21:51:28.493Z,-1.29
2023-04-04T21:53:56.040Z,-1.34
2023-04-04T21:56:27.489Z,-1.38
2023-04-04T21:58:55.778Z,-1.39
2023-04-04T22:01:22.610Z,-1.41
2023-04-04T22:03:49.478Z,-1.45
2023-04-04T22:06:16.465Z,-1.49
2023-04-04T22:08:43.099Z,-1.46
2023-04-04T22:11:13.707Z,-1.45
2023-04-04T22:13:47.144Z,-1.52
2023-04-04T22:16:18.693Z,-1.59
2023-04-04T22:18:47.577Z,-1.71
2023-04-04T22:21:15.914Z,-1.72
2023-04-04T22:23:43.154Z,-1.69
2023-04-04T22:26:14.047Z,-1.65
2023-04-04T22:28:45.860Z,-1.57
2023-04-04T22:31:12.692Z,-1.52
2023-04-04T22:33:39.336Z,-1.49
2023-04-04T22:36:08.188Z,-1.62
2023-04-04T22:38:34.871Z,-1.66
2023-04-04T22:41:01.477Z,-1.68
2023-04-04T22:43:28.708Z,-1.72
2023-04-04T22:45:55.594Z,-1.71
2023-04-04T22:48:25.087Z,-1.64
2023-04-04T22:50:55.866Z,-1.63
2023-04-04T22:53:26.111Z,-1.75
2023-04-04T22:55:54.090Z,-1.75
2023-04-04T22:58:21.892Z,-1.76
2023-04-04T23:00:48.835Z,-1.81
2023-04-04T23:03:16.005Z,-1.86
2023-04-04T23:05:43.142Z,-1.89
2023-04-04T23:08:09.807Z,-1.89
2023-04-04T23:10:37.090Z,-1.87
2023-04-04T23:13:03.991Z,-1.86
2023-04-04T23:15:32.479Z,-1.89
2023-04-04T23:17:59.217Z,-1.92
2023-04-04T23:20:25.931Z,-1.95
2023-04-04T23:22:53.082Z,-1.99
2023-04-04T23:25:19.842Z,-1.99
2023-04-04T23:27:46.492Z,-1.97
2023-04-04T23:30:13.280Z,-2.02
2023-04-04T23:32:40.044Z,-2.10
2023-04-04T23:35:06.912Z,-2.10
2023-04-04T23:37:33.534Z,-2.15
2023-04-04T23:40:00.160Z,-2.21
2023-04-04T23:42:26.753Z,-2.28
2023-04-04T23:44:53.338Z,-2.25
2023-04-04T23:47:21.049Z,-2.25
2023-04-04T23:49:47.595Z,-2.32
2023-04-04T23:52:14.395Z,-2.32
2023-04-04T23:54:41.108Z,-2.32
2023-04-04T23:57:07.931Z,-2.34
2023-04-04T23:59:34.568Z,-2.32
